Orlando, Florida
Traffic Map
Current Weather Conditions
Orlando, Florida
Clear
Clear
86°
Feels Like: 95°
Wind Chill: 86° Ceiling: Unl
Heat Index: 95° Visibility: 10mi
Dew Point: 75° Wind: 3mph
Humidity: 70% Direction: 100° (E)
Pressure: 30.06in Gusts: 0mph
Raw Report DataKORL 251453Z 10003KT 10SM CLR 30/24 A3006 RMK AO2 SLP181 T03000239 53010
Traffic Incident Summary
Active as of:
Severity:
Category:
InformationThere was an issue retrieving the traffic information for this location. Please try a different location or try again shortly.
Advertisements
Track Severe Weather on mobile